USCGC Healy — NEPP — position and weather

sailwx.info

Track history (hours):
 
Tides and Currents Weather Stations Pressure Air Temp Water Temp Dewpoint Dewpoint Depression Visibility Wind Speed Wind Dir Waves Ship Positions

Oceanographic research ship USCGC Healy (USA)

Detailed information on ship capabilities available from University of Delaware's Ocean Information Center and ARCUS's ALIAS (Arctic Logistics Information and Support) project.

Last reported at 2014-Dec-21 19:31 UTC. Time now 2014-Dec-21 20:02 UTC.
Position N 47°35' W 122°21'.

Type: Dredging. MMSI: 303902000.

Date/timePositionNaut miles runAvg speedWind from/ knotsBaromVisibWave heightAir tempDewpointWater temp
2014-Dec-21 19:31N 47°35' W 122°21'0 0.0
2014-Dec-21 18:28N 47°35' W 122°21'0 0.0
2014-Dec-21 17:25N 47°35' W 122°21'0 0.0
2014-Dec-21 16:31N 47°35' W 122°21'0 0.0
2014-Dec-21 15:25N 47°35' W 122°21'0 0.0
2014-Dec-21 14:28N 47°35' W 122°21'0 0.0
2014-Dec-21 13:28N 47°35' W 122°21'0 0.0
2014-Dec-21 12:28N 47°35' W 122°21'0 0.0
2014-Dec-21 11:31N 47°35' W 122°21'0 0.0
2014-Dec-21 10:31N 47°35' W 122°21'0 0.0
2014-Dec-21 09:31N 47°35' W 122°21'0 0.0
2014-Dec-21 08:25N 47°35' W 122°21'0 0.0
2014-Dec-21 07:31N 47°35' W 122°21'0 0.0
2014-Dec-21 06:31N 47°35' W 122°21'0 0.0
2014-Dec-21 05:31N 47°35' W 122°21'0 0.0
2014-Dec-21 04:28N 47°35' W 122°21'0 0.0
2014-Dec-21 03:28N 47°35' W 122°21'0 0.0
2014-Dec-21 02:31N 47°35' W 122°21'0 0.0
2014-Dec-21 01:28N 47°35' W 122°21'0 0.0
2014-Dec-21 00:28N 47°35' W 122°21'0 0.0
2014-Dec-20 23:31N 47°35' W 122°21'0 0.0
2014-Dec-20 22:31N 47°35' W 122°21'0 0.0
2014-Dec-20 21:25N 47°35' W 122°21'0 0.0
2014-Dec-20 20:25N 47°35' W 122°21'0 0.0
2014-Dec-20 19:28N 47°35' W 122°21'0 0.0
2014-Dec-20 18:31N 47°35' W 122°21'0 0.0
2014-Dec-20 17:31N 47°35' W 122°21'0 0.0
2014-Dec-20 16:31N 47°35' W 122°21'0 0.0
2014-Dec-20 15:31N 47°35' W 122°21'0 0.0
2014-Dec-20 14:28N 47°35' W 122°21'0 0.0
2014-Dec-20 13:31N 47°35' W 122°21'0 0.0
2014-Dec-20 12:31N 47°35' W 122°21'0 0.0
2014-Dec-20 11:31N 47°35' W 122°21'0 0.0
2014-Dec-20 10:25N 47°35' W 122°21'0 0.0
2014-Dec-20 09:28N 47°35' W 122°21'0 0.0
2014-Dec-20 08:22N 47°35' W 122°21'0 0.0
2014-Dec-20 07:28N 47°35' W 122°21'0 0.0
2014-Dec-20 06:28N 47°35' W 122°21'0 0.0
2014-Dec-20 05:31N 47°35' W 122°21'0 0.0
2014-Dec-20 04:22N 47°35' W 122°21'0 0.0
2014-Dec-20 03:28N 47°35' W 122°21'0 0.0
2014-Dec-20 02:31N 47°35' W 122°21'0 0.0
2014-Dec-20 01:28N 47°35' W 122°21'0 0.0
2014-Dec-20 00:31N 47°35' W 122°21'0 0.0
2014-Dec-19 23:28N 47°35' W 122°21'0 0.0
2014-Dec-19 22:28N 47°35' W 122°21'0 0.0
2014-Dec-19 21:31N 47°35' W 122°21'2 2.3
2014-Dec-19 20:33N 47°36' W 122°24'7 6.9
2014-Dec-19 19:33N 47°43' W 122°28'8 8.1
2014-Dec-19 18:33N 47°50' W 122°25'2 2.1
2014-Dec-19 17:33N 47°52' W 122°24'2 1.9
2014-Dec-19 16:33N 47°54' W 122°22'7 6.8
2014-Dec-19 15:33N 47°59' W 122°15'0 0.5
2014-Dec-19 14:33N 47°58' W 122°15'8 7.8
2014-Dec-19 13:33N 47°52' W 122°22'1110.7
2014-Dec-19 12:33N 47°58' W 122°36'1414.3
2014-Dec-19 11:33N 48°10' W 122°47'9 8.7
2014-Dec-19 10:31N 48°14' W 122°59'1 0.9
2014-Dec-19 09:30N 48°14' W 122°58'2 2.3
2014-Dec-19 08:32N 48°16' W 122°57'5 4.7
2014-Dec-19 07:32N 48°15' W 123°04'5 5.2
2014-Dec-19 06:33N 48°14' W 122°56'4 4.4
2014-Dec-19 05:33N 48°16' W 123°02'3 2.9
2014-Dec-19 04:33N 48°15' W 122°58'2 2.4
2014-Dec-19 03:33N 48°16' W 123°02'3 3.0
2014-Dec-19 02:32N 48°14' W 122°58'2 1.6
2014-Dec-19 01:33N 48°15' W 122°60'2 1.6
2014-Dec-19 00:33N 48°16' W 123°02'3 2.5
2014-Dec-18 23:33N 48°14' W 122°59'2 1.6
2014-Dec-18 22:33N 48°16' W 122°60'2 2.4
2014-Dec-18 21:33N 48°15' W 123°03'3 3.4
2014-Dec-18 20:33N 48°14' W 122°59'2 2.2
2014-Dec-18 19:33N 48°16' W 122°59'3 2.7
2014-Dec-18 18:32N 48°15' W 123°03'1 0.6
2014-Dec-18 17:33N 48°15' W 123°03'3 3.2
2014-Dec-18 16:33N 48°16' W 122°59'2 2.4
2014-Dec-18 15:34N 48°16' W 123°02'8 7.7
2014-Dec-18 14:31N 48°13' W 123°13'1313.7
2014-Dec-18 13:32N 48°14' W 123°34'1313.7
2014-Dec-18 12:33N 48°13' W 123°54'1413.9
2014-Dec-18 11:34N 48°19' W 124°13'1413.7
2014-Dec-18 10:33N 48°25' W 124°32'1313.2
2014-Dec-18 09:33N 48°29' W 124°51'1313.3
2014-Dec-18 08:33N 48°29' W 125°11'3 2.6
2014-Dec-18 07:33N 48°31' W 125°08'1514.5
2014-Dec-18 06:33N 48°31' W 124°47'1515.1
2014-Dec-18 05:34N 48°26' W 124°25'1515.4
2014-Dec-18 04:33N 48°20' W 124°04'1615.6
2014-Dec-18 03:33N 48°16' W 123°41'1717.1
2014-Dec-18 02:33N 48°14' W 123°15'1110.0
2014-Dec-18 01:25N 48°10' W 122°60'2 1.9
2014-Dec-18 00:32N 48°08' W 122°60'0 0.1
2014-Dec-17 21:07N 48°08' W 123°00'20 0.4
2014-Dec-15 20:15N 47°58' W 122°34'1014.4
2014-Dec-15 19:34N 47°49' W 122°27'1312.4
2014-Dec-15 18:32N 47°36' W 122°23'  
2014-Dec-12 21:33N 47°36' W 122°22'6 6.1
2014-Dec-12 20:33N 47°40' W 122°28'2 2.2
2014-Dec-12 19:33N 47°42' W 122°28'1211.2
2014-Dec-12 18:26N 47°54' W 122°22'5 1.5
2014-Dec-12 15:03N 47°51' W 122°28'612.3
2014-Dec-12 14:33N 47°57' W 122°33'1 0.1
2014-Dec-12 04:06N 47°57' W 122°32'610.5
2014-Dec-12 03:33N 47°52' W 122°27'1 1.3
2014-Dec-12 02:33N 47°51' W 122°27'  
Track history (hours):
 
Tides and Currents Weather Stations Pressure Air Temp Water Temp Dewpoint Dewpoint Depression Visibility Wind Speed Wind Dir Waves Ship Positions

Oceanographic research ship USCGC Healy (USA)

Detailed information on ship capabilities available from University of Delaware's Ocean Information Center and ARCUS's ALIAS (Arctic Logistics Information and Support) project.

Last reported at 2014-Dec-21 19:31 UTC. Time now 2014-Dec-21 20:02 UTC.
Position N 47°35' W 122°21'.

Type: Dredging. MMSI: 303902000.

Date/timePositionNaut miles runAvg speedWind from/ knotsBaromVisibWave heightAir tempDewpointWater temp
2014-Dec-21 19:31N 47°35' W 122°21'0 0.0
2014-Dec-21 18:28N 47°35' W 122°21'0 0.0
2014-Dec-21 17:25N 47°35' W 122°21'0 0.0
2014-Dec-21 16:31N 47°35' W 122°21'0 0.0
2014-Dec-21 15:25N 47°35' W 122°21'0 0.0
2014-Dec-21 14:28N 47°35' W 122°21'0 0.0
2014-Dec-21 13:28N 47°35' W 122°21'0 0.0
2014-Dec-21 12:28N 47°35' W 122°21'0 0.0
2014-Dec-21 11:31N 47°35' W 122°21'0 0.0
2014-Dec-21 10:31N 47°35' W 122°21'0 0.0
2014-Dec-21 09:31N 47°35' W 122°21'0 0.0
2014-Dec-21 08:25N 47°35' W 122°21'0 0.0
2014-Dec-21 07:31N 47°35' W 122°21'0 0.0
2014-Dec-21 06:31N 47°35' W 122°21'0 0.0
2014-Dec-21 05:31N 47°35' W 122°21'0 0.0
2014-Dec-21 04:28N 47°35' W 122°21'0 0.0
2014-Dec-21 03:28N 47°35' W 122°21'0 0.0
2014-Dec-21 02:31N 47°35' W 122°21'0 0.0
2014-Dec-21 01:28N 47°35' W 122°21'0 0.0
2014-Dec-21 00:28N 47°35' W 122°21'0 0.0
2014-Dec-20 23:31N 47°35' W 122°21'0 0.0
2014-Dec-20 22:31N 47°35' W 122°21'0 0.0
2014-Dec-20 21:25N 47°35' W 122°21'0 0.0
2014-Dec-20 20:25N 47°35' W 122°21'0 0.0
2014-Dec-20 19:28N 47°35' W 122°21'0 0.0
2014-Dec-20 18:31N 47°35' W 122°21'0 0.0
2014-Dec-20 17:31N 47°35' W 122°21'0 0.0
2014-Dec-20 16:31N 47°35' W 122°21'0 0.0
2014-Dec-20 15:31N 47°35' W 122°21'0 0.0
2014-Dec-20 14:28N 47°35' W 122°21'0 0.0
2014-Dec-20 13:31N 47°35' W 122°21'0 0.0
2014-Dec-20 12:31N 47°35' W 122°21'0 0.0
2014-Dec-20 11:31N 47°35' W 122°21'0 0.0
2014-Dec-20 10:25N 47°35' W 122°21'0 0.0
2014-Dec-20 09:28N 47°35' W 122°21'0 0.0
2014-Dec-20 08:22N 47°35' W 122°21'0 0.0
2014-Dec-20 07:28N 47°35' W 122°21'0 0.0
2014-Dec-20 06:28N 47°35' W 122°21'0 0.0
2014-Dec-20 05:31N 47°35' W 122°21'0 0.0
2014-Dec-20 04:22N 47°35' W 122°21'0 0.0
2014-Dec-20 03:28N 47°35' W 122°21'0 0.0
2014-Dec-20 02:31N 47°35' W 122°21'0 0.0
2014-Dec-20 01:28N 47°35' W 122°21'0 0.0
2014-Dec-20 00:31N 47°35' W 122°21'0 0.0
2014-Dec-19 23:28N 47°35' W 122°21'0 0.0
2014-Dec-19 22:28N 47°35' W 122°21'0 0.0
2014-Dec-19 21:31N 47°35' W 122°21'2 2.3
2014-Dec-19 20:33N 47°36' W 122°24'7 6.9
2014-Dec-19 19:33N 47°43' W 122°28'8 8.1
2014-Dec-19 18:33N 47°50' W 122°25'2 2.1
2014-Dec-19 17:33N 47°52' W 122°24'2 1.9
2014-Dec-19 16:33N 47°54' W 122°22'7 6.8
2014-Dec-19 15:33N 47°59' W 122°15'0 0.5
2014-Dec-19 14:33N 47°58' W 122°15'8 7.8
2014-Dec-19 13:33N 47°52' W 122°22'1110.7
2014-Dec-19 12:33N 47°58' W 122°36'1414.3
2014-Dec-19 11:33N 48°10' W 122°47'9 8.7
2014-Dec-19 10:31N 48°14' W 122°59'1 0.9
2014-Dec-19 09:30N 48°14' W 122°58'2 2.3
2014-Dec-19 08:32N 48°16' W 122°57'5 4.7
2014-Dec-19 07:32N 48°15' W 123°04'5 5.2
2014-Dec-19 06:33N 48°14' W 122°56'4 4.4
2014-Dec-19 05:33N 48°16' W 123°02'3 2.9
2014-Dec-19 04:33N 48°15' W 122°58'2 2.4
2014-Dec-19 03:33N 48°16' W 123°02'3 3.0
2014-Dec-19 02:32N 48°14' W 122°58'2 1.6
2014-Dec-19 01:33N 48°15' W 122°60'2 1.6
2014-Dec-19 00:33N 48°16' W 123°02'3 2.5
2014-Dec-18 23:33N 48°14' W 122°59'2 1.6
2014-Dec-18 22:33N 48°16' W 122°60'2 2.4
2014-Dec-18 21:33N 48°15' W 123°03'3 3.4
2014-Dec-18 20:33N 48°14' W 122°59'2 2.2
2014-Dec-18 19:33N 48°16' W 122°59'3 2.7
2014-Dec-18 18:32N 48°15' W 123°03'1 0.6
2014-Dec-18 17:33N 48°15' W 123°03'3 3.2
2014-Dec-18 16:33N 48°16' W 122°59'2 2.4
2014-Dec-18 15:34N 48°16' W 123°02'8 7.7
2014-Dec-18 14:31N 48°13' W 123°13'1313.7
2014-Dec-18 13:32N 48°14' W 123°34'1313.7
2014-Dec-18 12:33N 48°13' W 123°54'1413.9
2014-Dec-18 11:34N 48°19' W 124°13'1413.7
2014-Dec-18 10:33N 48°25' W 124°32'1313.2
2014-Dec-18 09:33N 48°29' W 124°51'1313.3
2014-Dec-18 08:33N 48°29' W 125°11'3 2.6
2014-Dec-18 07:33N 48°31' W 125°08'1514.5
2014-Dec-18 06:33N 48°31' W 124°47'1515.1
2014-Dec-18 05:34N 48°26' W 124°25'1515.4
2014-Dec-18 04:33N 48°20' W 124°04'1615.6
2014-Dec-18 03:33N 48°16' W 123°41'1717.1
2014-Dec-18 02:33N 48°14' W 123°15'1110.0
2014-Dec-18 01:25N 48°10' W 122°60'2 1.9
2014-Dec-18 00:32N 48°08' W 122°60'0 0.1
2014-Dec-17 21:07N 48°08' W 123°00'20 0.4
2014-Dec-15 20:15N 47°58' W 122°34'1014.4
2014-Dec-15 19:34N 47°49' W 122°27'1312.4
2014-Dec-15 18:32N 47°36' W 122°23'  
2014-Dec-12 21:33N 47°36' W 122°22'6 6.1
2014-Dec-12 20:33N 47°40' W 122°28'2 2.2
2014-Dec-12 19:33N 47°42' W 122°28'1211.2
2014-Dec-12 18:26N 47°54' W 122°22'5 1.5
2014-Dec-12 15:03N 47°51' W 122°28'612.3
2014-Dec-12 14:33N 47°57' W 122°33'1 0.1
2014-Dec-12 04:06N 47°57' W 122°32'610.5
2014-Dec-12 03:33N 47°52' W 122°27'1 1.3
2014-Dec-12 02:33N 47°51' W 122°27'  

Dump ship's entire track history